Time;durP1;ratioP1;P1;durP2;ratioP2;P2;SDS_P1;SDS_P2;PMS_P1;PMS_P2;Temp;Humidity;BMP_temperature;BMP_pressure;BME280_temperature;BME280_humidity;BME280_pressure;Samples;Min_cycle;Max_cycle;Signal;HPM_P1;HPM_P2
2024/02/24 00:01:26;;;;;;;57.78;24.12;;;;;;;7.26;100.00;99084.16;1824431;78;25432;-58
2024/02/24 00:03:54;;;;;;;46.63;24.10;;;;;;;7.25;100.00;99078.52;1824519;78;25889;-58
2024/02/24 00:06:20;;;;;;;52.38;22.87;;;;;;;7.24;100.00;99076.39;1824439;78;25367;-58
2024/02/24 00:08:47;;;;;;;50.33;23.80;;;;;;;7.25;100.00;99073.95;1824396;78;25506;-59
2024/02/24 00:11:14;;;;;;;49.30;24.63;;;;;;;7.25;100.00;99065.89;1823680;78;25652;-58
2024/02/24 00:13:40;;;;;;;52.10;24.77;;;;;;;7.26;100.00;99055.91;1823265;78;25544;-57
2024/02/24 00:16:07;;;;;;;50.52;23.30;;;;;;;7.27;100.00;99057.47;1823659;77;27448;-59
2024/02/24 00:18:34;;;;;;;48.78;24.63;;;;;;;7.29;100.00;99056.63;1823489;78;25716;-60
2024/02/24 00:21:01;;;;;;;48.45;26.15;;;;;;;7.31;100.00;99056.31;1822974;78;26000;-58
2024/02/24 00:23:28;;;;;;;48.38;25.60;;;;;;;7.33;100.00;99052.75;1823533;78;25699;-58
2024/02/24 00:25:55;;;;;;;45.88;25.52;;;;;;;7.33;100.00;99052.75;1823597;78;25283;-59
2024/02/24 00:28:21;;;;;;;48.83;27.52;;;;;;;7.35;100.00;99042.45;1823832;78;27388;-58
2024/02/24 00:30:48;;;;;;;45.67;26.52;;;;;;;7.36;100.00;99040.02;1824310;78;25569;-58
2024/02/24 00:33:14;;;;;;;48.95;27.05;;;;;;;7.37;100.00;99031.63;1823859;78;25428;-59
2024/02/24 00:35:41;;;;;;;44.33;25.95;;;;;;;7.37;100.00;99029.47;1823806;78;25532;-59
2024/02/24 00:38:07;;;;;;;48.20;26.87;;;;;;;7.37;100.00;99031.63;1823844;78;25490;-59
2024/02/24 00:40:36;;;;;;;49.53;28.20;;;;;;;7.38;100.00;99034.53;1823808;78;28459;-59
2024/02/24 00:43:03;;;;;;;50.25;28.42;;;;;;;7.39;100.00;99033.97;1823860;77;25816;-58
2024/02/24 00:45:29;;;;;;;54.50;27.98;;;;;;;7.40;100.00;99031.53;1823796;78;25370;-60
2024/02/24 00:47:55;;;;;;;49.48;28.23;;;;;;;7.41;100.00;99029.88;1823779;78;26097;-59
2024/02/24 00:50:28;;;;;;;51.45;28.62;;;;;;;7.42;100.00;99031.47;1823795;78;25625;-58
2024/02/24 00:52:50;;;;;;;47.17;28.62;;;;;;;7.43;100.00;99034.94;1822938;78;27554;-56
2024/02/24 00:55:16;;;;;;;47.55;29.32;;;;;;;7.43;100.00;99041.09;1822725;78;25583;-56
2024/02/24 00:57:43;;;;;;;50.60;28.75;;;;;;;7.43;100.00;99037.06;1823623;78;25553;-58
2024/02/24 01:00:11;;;;;;;48.17;28.85;;;;;;;7.44;100.00;99036.50;1823747;78;26873;-58
2024/02/24 01:02:37;;;;;;;44.00;27.32;;;;;;;7.41;100.00;99019.67;1823838;78;25558;-56
2024/02/24 01:05:26;;;;;;;43.70;26.82;;;;;;;7.41;100.00;99025.84;1824119;78;28468;-59
2024/02/24 01:07:55;;;;;;;43.68;27.58;;;;;;;7.41;100.00;99021.80;1763536;81;25634;-54
2024/02/24 01:10:21;;;;;;;45.83;27.65;;;;;;;7.40;100.00;99027.50;1764785;81;25525;-54
2024/02/24 01:12:47;;;;;;;45.52;27.93;;;;;;;7.39;100.00;99026.72;1764968;81;25781;-56
2024/02/24 01:15:14;;;;;;;45.43;26.85;;;;;;;7.39;100.00;99021.87;1765073;81;25589;-53
2024/02/24 01:17:40;;;;;;;46.23;27.70;;;;;;;7.38;100.00;99015.70;1765011;81;27389;-55
2024/02/24 01:20:09;;;;;;;43.55;26.77;;;;;;;7.37;100.00;99011.98;1764964;81;25613;-56
2024/02/24 01:22:36;;;;;;;41.42;26.75;;;;;;;7.37;100.00;99005.26;1765207;81;25424;-56
2024/02/24 01:25:04;;;;;;;47.33;25.60;;;;;;;7.43;100.00;99010.16;1764990;81;25665;-58
2024/02/24 01:27:31;;;;;;;43.50;25.20;;;;;;;7.36;100.00;98994.28;1765312;81;25441;-57
2024/02/24 01:29:57;;;;;;;34.55;22.65;;;;;;;7.35;100.00;98988.66;1765011;80;27499;-57
2024/02/24 01:32:23;;;;;;;39.00;24.05;;;;;;;7.34;100.00;98978.45;1764947;81;25687;-57
2024/02/24 01:34:49;;;;;;;41.02;22.93;;;;;;;7.33;100.00;98992.22;1765045;81;25511;-54
2024/02/24 01:37:16;;;;;;;36.20;24.27;;;;;;;7.31;100.00;98991.76;1764969;81;25541;-56
2024/02/24 01:39:42;;;;;;;36.85;24.25;;;;;;;7.31;100.00;98982.34;1765049;81;25698;-55
2024/02/24 01:42:09;;;;;;;37.42;23.92;;;;;;;7.32;100.00;98978.52;1764934;81;28496;-58
2024/02/24 01:44:35;;;;;;;35.95;23.90;;;;;;;7.31;100.00;98982.34;1764871;81;26092;-58
2024/02/24 01:47:02;;;;;;;35.80;23.90;;;;;;;7.30;100.00;98978.84;1764983;80;25481;-55
2024/02/24 01:49:28;;;;;;;38.00;24.77;;;;;;;7.31;100.00;98989.06;1764941;81;25581;-56
2024/02/24 01:51:54;;;;;;;34.65;23.12;;;;;;;7.31;100.00;98987.72;1768277;81;25568;-57
2024/02/24 01:54:21;;;;;;;34.15;22.93;;;;;;;7.29;100.00;98974.02;1769832;81;27477;-54
2024/02/24 01:56:47;;;;;;;36.65;23.50;;;;;;;7.27;100.00;98961.45;1769811;81;25755;-55
2024/02/24 01:59:15;;;;;;;34.78;22.17;;;;;;;7.27;100.00;98970.88;1769904;81;25554;-57
2024/02/24 02:01:42;;;;;;;33.18;22.52;;;;;;;7.28;100.00;98973.00;1769712;81;25551;-57
2024/02/24 02:04:08;;;;;;;34.95;21.95;;;;;;;7.29;100.00;98971.91;1764838;81;25651;-58
2024/02/24 02:06:35;;;;;;;31.87;21.42;;;;;;;7.28;100.00;98970.31;1803602;79;27492;-58
2024/02/24 02:09:02;;;;;;;34.18;22.80;;;;;;;7.27;100.00;98967.37;1803600;79;25573;-57
2024/02/24 02:11:29;;;;;;;31.42;21.25;;;;;;;7.26;100.00;98959.86;1803705;79;25420;-57
2024/02/24 02:13:56;;;;;;;30.23;21.33;;;;;;;7.26;100.00;98955.83;1803672;79;25419;-59
2024/02/24 02:16:23;;;;;;;27.77;21.35;;;;;;;7.26;100.00;98959.86;1803713;79;25379;-56
2024/02/24 02:18:50;;;;;;;29.65;21.35;;;;;;;7.26;100.00;98952.36;1803710;79;27487;-58
2024/02/24 02:21:18;;;;;;;33.00;22.50;;;;;;;7.25;100.00;98946.20;1803572;79;25413;-55
2024/02/24 02:23:44;;;;;;;32.58;21.60;;;;;;;7.24;100.00;98957.27;1803676;79;25613;-56
2024/02/24 02:26:13;;;;;;;31.87;21.87;;;;;;;7.24;100.00;98946.52;1803637;79;25696;-58
2024/02/24 02:28:40;;;;;;;32.50;21.75;;;;;;;7.24;100.00;98941.14;1803683;79;25418;-57
2024/02/24 02:31:07;;;;;;;29.65;20.80;;;;;;;7.23;100.00;98944.92;1803665;79;27537;-58
2024/02/24 02:33:33;;;;;;;32.45;22.30;;;;;;;7.23;100.00;98948.95;1803592;79;25533;-57
2024/02/24 02:36:00;;;;;;;35.63;22.50;;;;;;;7.21;100.00;98934.48;1803672;79;25387;-57
2024/02/24 02:38:27;;;;;;;30.10;21.17;;;;;;;7.20;100.00;98924.85;1803637;79;25542;-55
2024/02/24 02:40:53;;;;;;;35.00;22.60;;;;;;;7.21;100.00;98937.73;1803682;79;25633;-55
2024/02/24 02:43:19;;;;;;;29.87;22.17;;;;;;;7.19;100.00;98934.02;1803665;79;27595;-55
2024/02/24 02:45:46;;;;;;;35.60;24.23;;;;;;;7.19;100.00;98946.12;1803593;79;25427;-55
2024/02/24 02:48:12;;;;;;;35.80;24.02;;;;;;;7.17;100.00;98943.50;1803625;79;25444;-57
2024/02/24 02:50:39;;;;;;;34.40;24.10;;;;;;;7.16;100.00;98931.96;1803643;79;25458;-57
2024/02/24 02:53:05;;;;;;;36.03;24.43;;;;;;;7.16;100.00;98929.27;1803697;79;25429;-55
2024/02/24 02:55:32;;;;;;;35.15;25.32;;;;;;;7.16;100.00;98933.87;1803693;79;28100;-56
2024/02/24 02:57:58;;;;;;;35.05;24.18;;;;;;;7.15;100.00;98925.02;1803559;79;25690;-54
2024/02/24 03:00:24;;;;;;;37.95;24.85;;;;;;;7.13;100.00;98920.49;1803677;79;25611;-54
2024/02/24 03:02:50;;;;;;;38.40;25.75;;;;;;;7.09;100.00;98919.00;1803611;79;25593;-54
2024/02/24 03:05:17;;;;;;;37.75;25.95;;;;;;;7.09;100.00;98905.55;1803662;79;25488;-56
2024/02/24 03:07:44;;;;;;;37.35;25.97;;;;;;;7.07;100.00;98902.40;1794132;79;27515;-57
2024/02/24 03:10:11;;;;;;;36.13;25.60;;;;;;;7.07;100.00;98904.31;1790096;80;25778;-55
2024/02/24 03:12:38;;;;;;;38.53;25.88;;;;;;;7.04;100.00;98900.34;1790147;80;25610;-57
2024/02/24 03:15:08;;;;;;;34.63;25.30;;;;;;;7.04;100.00;98895.53;1790142;80;25574;-54
2024/02/24 03:17:34;;;;;;;39.38;26.93;;;;;;;7.04;100.00;98884.22;1790177;80;25539;-58
2024/02/24 03:20:00;;;;;;;35.45;25.45;;;;;;;7.05;100.00;98891.75;1790163;79;27455;-57
2024/02/24 03:22:32;;;;;;;41.77;27.75;;;;;;;7.05;100.00;98891.75;1790048;80;25612;-57
2024/02/24 03:24:58;;;;;;;38.92;26.95;;;;;;;7.04;100.00;98886.91;1790093;80;25585;-57
2024/02/24 03:27:24;;;;;;;39.80;27.73;;;;;;;7.03;100.00;98879.97;1790099;80;26109;-58
2024/02/24 03:29:51;;;;;;;39.27;26.45;;;;;;;7.01;100.00;98874.09;1790173;79;25634;-58
2024/02/24 03:32:17;;;;;;;37.73;26.33;;;;;;;6.99;100.00;98881.70;1790136;80;27474;-57
2024/02/24 03:34:44;;;;;;;37.75;26.77;;;;;;;7.00;100.00;98890.54;1790052;80;25725;-54
2024/02/24 03:37:10;;;;;;;41.48;27.52;;;;;;;6.99;100.00;98887.63;1790207;80;25485;-58
2024/02/24 03:39:38;;;;;;;38.53;26.00;;;;;;;6.98;100.00;98887.39;1790110;79;25860;-55
2024/02/24 03:42:05;;;;;;;40.67;27.10;;;;;;;6.96;100.00;98883.67;1790140;80;25438;-56
2024/02/24 03:44:31;;;;;;;37.65;26.02;;;;;;;6.95;100.00;98883.45;1790110;79;28598;-58
2024/02/24 03:46:58;;;;;;;36.58;25.75;;;;;;;6.94;100.00;98880.52;1790052;79;25487;-55
2024/02/24 03:49:24;;;;;;;38.20;25.77;;;;;;;6.92;100.00;98886.20;1790123;80;25396;-57
2024/02/24 03:51:50;;;;;;;37.15;26.42;;;;;;;6.94;100.00;98884.55;1790103;80;25683;-57
2024/02/24 03:54:17;;;;;;;42.50;27.27;;;;;;;6.92;100.00;98884.08;1790161;80;25571;-57
2024/02/24 03:56:44;;;;;;;37.25;25.68;;;;;;;6.92;100.00;98887.55;1790127;80;27509;-57
2024/02/24 03:59:10;;;;;;;36.68;26.87;;;;;;;6.93;100.00;98887.02;1790047;79;26122;-58
2024/02/24 04:01:36;;;;;;;37.70;25.68;;;;;;;6.91;100.00;98883.30;1790083;80;25503;-58
2024/02/24 04:04:04;;;;;;;37.28;26.75;;;;;;;6.91;100.00;98885.18;1791711;79;25890;-58
2024/02/24 04:06:30;;;;;;;38.73;25.95;;;;;;;6.90;100.00;98886.30;1790791;79;25593;-57
2024/02/24 04:08:56;;;;;;;37.17;25.17;;;;;;;6.90;100.00;98891.68;1803804;79;28080;-59
2024/02/24 04:11:23;;;;;;;36.90;26.20;;;;;;;6.90;100.00;98888.99;1803686;79;25452;-58
2024/02/24 04:13:49;;;;;;;39.67;25.17;;;;;;;6.88;100.00;98885.28;1803781;79;25535;-57
2024/02/24 04:16:16;;;;;;;38.40;26.17;;;;;;;6.89;100.00;98884.72;1803736;79;25581;-57
2024/02/24 04:18:43;;;;;;;36.60;24.52;;;;;;;6.90;100.00;98883.62;1803830;79;25633;-56
2024/02/24 04:21:09;;;;;;;36.98;24.82;;;;;;;6.91;100.00;98899.97;1803716;79;28154;-57
2024/02/24 04:23:36;;;;;;;35.98;24.30;;;;;;;6.91;100.00;98905.34;1803677;79;25949;-57
2024/02/24 04:26:02;;;;;;;37.55;25.25;;;;;;;6.90;100.00;98897.06;1803784;79;25489;-56
2024/02/24 04:28:29;;;;;;;31.30;23.50;;;;;;;6.88;100.00;98888.53;1803733;79;25579;-54
2024/02/24 04:30:56;;;;;;;38.15;25.45;;;;;;;6.90;100.00;98888.43;1803792;79;25570;-58
2024/02/24 04:33:22;;;;;;;36.58;25.05;;;;;;;6.92;100.00;98892.15;1803755;79;27990;-57
2024/02/24 04:35:48;;;;;;;33.45;24.63;;;;;;;6.91;100.00;98895.40;1803661;79;25437;-56
2024/02/24 04:38:15;;;;;;;35.80;26.05;;;;;;;6.91;100.00;98900.77;1803772;79;25408;-57
2024/02/24 04:40:42;;;;;;;33.45;23.47;;;;;;;6.92;100.00;98905.59;1803714;79;25597;-54
2024/02/24 04:43:08;;;;;;;38.25;24.23;;;;;;;6.91;100.00;98900.77;1803730;79;25462;-57
2024/02/24 04:45:36;;;;;;;37.28;24.10;;;;;;;6.92;100.00;98906.37;1803744;79;27364;-57
2024/02/24 04:48:05;;;;;;;34.23;23.95;;;;;;;6.90;100.00;98897.84;1803771;79;26214;-57
2024/02/24 04:50:32;;;;;;;35.95;24.37;;;;;;;6.92;100.00;98902.34;1803736;79;25454;-58
2024/02/24 04:52:59;;;;;;;34.40;23.18;;;;;;;6.93;100.00;98912.55;1803693;79;26096;-58
2024/02/24 04:55:27;;;;;;;36.80;23.75;;;;;;;6.93;100.00;98897.77;1803752;79;25539;-55
2024/02/24 04:57:54;;;;;;;33.28;23.25;;;;;;;6.92;100.00;98895.61;1803706;79;27523;-57
2024/02/24 05:00:21;;;;;;;34.00;23.30;;;;;;;6.91;100.00;98895.40;1803633;79;25590;-59
2024/02/24 05:02:49;;;;;;;34.13;22.40;;;;;;;6.91;100.00;98891.37;1803674;79;25541;-58
2024/02/24 05:05:16;;;;;;;36.80;23.80;;;;;;;6.92;100.00;98893.48;1803699;79;25909;-58
2024/02/24 05:07:44;;;;;;;31.42;22.67;;;;;;;6.92;100.00;98901.55;1803659;79;25652;-58
2024/02/24 05:10:10;;;;;;;36.90;24.02;;;;;;;6.91;100.00;98898.62;1803727;79;27470;-58
2024/02/24 05:12:36;;;;;;;30.45;22.48;;;;;;;6.90;100.00;98898.41;1803610;79;25504;-56
2024/02/24 05:15:06;;;;;;;31.37;22.52;;;;;;;6.89;100.00;98898.16;1803712;79;25459;-57
2024/02/24 05:17:32;;;;;;;33.10;21.87;;;;;;;6.89;100.00;98899.50;1803850;79;25652;-55
2024/02/24 05:20:00;;;;;;;32.13;21.87;;;;;;;6.89;100.00;98900.84;1803748;79;25380;-58
2024/02/24 05:22:27;;;;;;;33.13;23.12;;;;;;;6.87;100.00;98889.06;1803615;79;27792;-55
2024/02/24 05:24:55;;;;;;;36.28;23.42;;;;;;;6.88;100.00;98867.80;1803656;79;25424;-58
2024/02/24 05:27:21;;;;;;;32.17;23.02;;;;;;;6.87;100.00;98880.22;1803693;79;25539;-61
2024/02/24 05:29:48;;;;;;;33.35;22.93;;;;;;;6.86;100.00;98880.78;1803662;79;25535;-58
2024/02/24 05:32:19;;;;;;;34.78;23.27;;;;;;;6.86;100.00;98888.84;1803729;79;25420;-56
2024/02/24 05:34:46;;;;;;;35.13;22.30;;;;;;;6.85;100.00;98884.56;1803813;79;28110;-55
2024/02/24 05:37:13;;;;;;;30.57;22.40;;;;;;;6.85;100.00;98875.16;1803592;79;26300;-58
2024/02/24 05:39:40;;;;;;;32.13;23.00;;;;;;;6.85;100.00;98867.66;1803698;79;25503;-55
2024/02/24 05:42:07;;;;;;;31.10;22.67;;;;;;;6.85;100.00;98867.66;1803598;79;26454;-55
2024/02/24 05:44:34;;;;;;;37.33;23.42;;;;;;;6.84;100.00;98870.09;1803697;79;25590;-56
2024/02/24 05:47:02;;;;;;;34.18;21.87;;;;;;;6.83;100.00;98870.66;1803685;79;27358;-55
2024/02/24 05:49:28;;;;;;;37.13;21.40;;;;;;;6.81;100.00;98868.84;1803572;79;25932;-56
2024/02/24 05:51:55;;;;;;;28.73;21.25;;;;;;;6.82;100.00;98873.09;1803649;79;25433;-56
2024/02/24 05:54:24;;;;;;;30.43;22.10;;;;;;;6.82;100.00;98873.66;1803637;79;25582;-54
2024/02/24 05:56:52;;;;;;;32.17;21.30;;;;;;;6.83;100.00;98871.22;1803720;79;25366;-58
2024/02/24 05:59:19;;;;;;;29.57;20.85;;;;;;;6.81;100.00;98866.16;1803681;79;27478;-54
2024/02/24 06:01:46;;;;;;;28.50;20.88;;;;;;;6.80;100.00;98860.54;1803556;79;25690;-58
2024/02/24 06:04:16;;;;;;;31.02;22.15;;;;;;;6.80;100.00;98867.82;1803750;79;25566;-55
2024/02/24 06:06:42;;;;;;;30.37;21.97;;;;;;;6.81;100.00;98872.07;1803608;79;25499;-56
2024/02/24 06:09:10;;;;;;;32.08;21.37;;;;;;;6.81;100.00;98878.79;1793706;79;25514;-56
2024/02/24 06:11:36;;;;;;;32.15;22.25;;;;;;;6.81;100.00;98882.28;1792095;80;27128;-56
2024/02/24 06:14:03;;;;;;;32.15;21.35;;;;;;;6.81;100.00;98875.57;1792045;80;25744;-58
2024/02/24 06:16:29;;;;;;;31.23;21.75;;;;;;;6.83;100.00;98877.94;1792125;80;25391;-57
2024/02/24 06:18:56;;;;;;;30.15;21.07;;;;;;;6.84;100.00;98884.88;1792102;80;26017;-57
2024/02/24 06:21:23;;;;;;;28.70;21.60;;;;;;;6.84;100.00;98884.31;1792159;80;25598;-57
2024/02/24 06:23:51;;;;;;;28.77;20.75;;;;;;;6.85;100.00;98885.91;1792116;80;27459;-56
2024/02/24 06:26:17;;;;;;;29.05;21.48;;;;;;;6.84;100.00;98887.56;1792027;80;25423;-58
2024/02/24 06:28:44;;;;;;;31.12;20.82;;;;;;;6.84;100.00;98882.97;1792132;80;25468;-57
2024/02/24 06:31:13;;;;;;;29.55;20.97;;;;;;;6.86;100.00;98872.72;1792062;80;26117;-54
2024/02/24 06:33:40;;;;;;;27.35;19.60;;;;;;;6.88;100.00;98872.41;1792176;80;25515;-55
2024/02/24 06:36:08;;;;;;;28.75;20.00;;;;;;;6.88;100.00;98857.05;1792099;80;27901;-58
2024/02/24 06:38:34;;;;;;;24.63;18.82;;;;;;;6.91;100.00;98868.52;1792073;80;25372;-54
2024/02/24 06:41:00;;;;;;;26.57;19.48;;;;;;;6.92;100.00;98853.95;1792152;80;25623;-57
2024/02/24 06:43:27;;;;;;;26.10;18.60;;;;;;;6.95;100.00;98868.67;1792064;80;25798;-59
2024/02/24 06:45:53;;;;;;;28.17;18.95;;;;;;;6.97;100.00;98869.70;1792170;80;25542;-55
2024/02/24 06:48:19;;;;;;;24.85;17.20;;;;;;;6.98;100.00;98866.69;1792153;80;27826;-58
2024/02/24 06:50:46;;;;;;;23.77;18.20;;;;;;;7.01;100.00;98876.00;1792031;80;25406;-57
2024/02/24 06:53:12;;;;;;;24.82;18.42;;;;;;;7.03;100.00;98867.05;1792127;80;25609;-57
2024/02/24 06:55:38;;;;;;;26.65;17.20;;;;;;;7.05;100.00;98872.36;1792106;80;25502;-57
2024/02/24 06:58:05;;;;;;;24.60;17.73;;;;;;;7.08;100.00;98874.95;1792138;80;25551;-54
2024/02/24 07:00:31;;;;;;;22.35;16.25;;;;;;;7.11;100.00;98879.13;1792125;80;26917;-57
2024/02/24 07:02:57;;;;;;;25.43;16.93;;;;;;;7.16;100.00;98880.09;1792002;80;25428;-57
2024/02/24 07:05:25;;;;;;;22.52;15.68;;;;;;;7.18;100.00;98874.61;1792079;80;25574;-55
2024/02/24 07:07:52;;;;;;;23.10;14.90;;;;;;;7.22;100.00;98870.72;1793794;79;25559;-55
2024/02/24 07:10:18;;;;;;;20.50;14.47;;;;;;;7.25;100.00;98879.50;1803710;79;25398;-57
2024/02/24 07:12:44;;;;;;;21.07;13.45;;;;;;;7.27;100.00;98868.66;1803650;79;27347;-57
2024/02/24 07:15:11;;;;;;;21.33;13.60;;;;;;;7.32;100.00;98883.03;1803557;79;25571;-55
2024/02/24 07:17:37;;;;;;;16.50;12.80;;;;;;;7.35;100.00;98864.35;1803640;79;25427;-56
2024/02/24 07:20:05;;;;;;;19.30;13.90;;;;;;;7.38;100.00;98867.75;1803626;79;25621;-57
2024/02/24 07:22:32;;;;;;;18.98;13.30;;;;;;;7.43;100.00;98878.89;1803608;79;25406;-57
2024/02/24 07:24:58;;;;;;;16.00;11.68;;;;;;;7.45;100.00;98865.34;1803605;79;27821;-58
2024/02/24 07:27:25;;;;;;;17.52;12.65;;;;;;;7.49;100.00;98861.45;1803465;79;25460;-55
2024/02/24 07:29:51;;;;;;;18.87;12.40;;;;;;;7.55;100.00;98858.04;1803624;79;25545;-58
2024/02/24 07:32:17;;;;;;;17.32;12.00;;;;;;;7.58;100.00;98871.64;1803602;79;25570;-54
2024/02/24 07:34:44;;;;;;;16.65;12.40;;;;;;;7.63;100.00;98863.38;1803661;79;25439;-58
2024/02/24 07:37:11;;;;;;;15.78;11.68;;;;;;;7.67;100.00;98880.45;1771479;79;28580;-58
2024/02/24 07:39:38;;;;;;;16.27;12.35;;;;;;;7.70;100.00;98884.41;1803547;79;26414;-54
2024/02/24 07:42:05;;;;;;;18.87;11.75;;;;;;;7.73;100.00;98885.11;1803647;79;25381;-58
2024/02/24 07:44:31;;;;;;;15.95;11.33;;;;;;;7.77;100.00;98881.21;1803743;79;25549;-57
2024/02/24 07:46:57;;;;;;;18.87;12.25;;;;;;;7.80;100.00;98874.62;1803836;79;25476;-59
2024/02/24 07:49:23;;;;;;;16.05;11.05;;;;;;;7.84;100.00;98883.61;1803794;79;27496;-59
2024/02/24 07:51:50;;;;;;;14.45;10.82;;;;;;;7.85;100.00;98896.53;1803722;79;25564;-58
2024/02/24 07:54:17;;;;;;;15.10;11.00;;;;;;;7.85;100.00;98902.70;1803764;79;25383;-56
2024/02/24 07:56:43;;;;;;;15.25;10.20;;;;;;;7.91;100.00;98909.25;1803745;79;25612;-58
2024/02/24 07:59:09;;;;;;;14.45;10.65;;;;;;;7.92;100.00;98901.41;1803827;79;25615;-59
2024/02/24 08:01:36;;;;;;;13.90;9.85;;;;;;;7.93;100.00;98888.95;1803812;79;27833;-59
2024/02/24 08:04:03;;;;;;;15.63;10.53;;;;;;;7.95;100.00;98894.01;1803650;79;26180;-58
2024/02/24 08:06:31;;;;;;;13.65;10.13;;;;;;;7.95;100.00;98901.55;1803779;79;25369;-56
2024/02/24 08:08:57;;;;;;;16.05;10.68;;;;;;;7.99;100.00;98907.85;1803660;79;25603;-57
2024/02/24 08:11:24;;;;;;;14.75;10.58;;;;;;;8.03;100.00;98912.02;1803805;79;25402;-58
2024/02/24 08:13:50;;;;;;;15.05;11.78;;;;;;;8.04;100.00;98919.00;1803802;79;28552;-57
2024/02/24 08:16:22;;;;;;;15.00;10.88;;;;;;;8.03;100.00;98919.54;1803694;79;25698;-58
2024/02/24 08:18:49;;;;;;;15.40;10.03;;;;;;;8.06;100.00;98907.91;1803794;79;25612;-58
2024/02/24 08:21:16;;;;;;;13.53;10.25;;;;;;;8.08;100.00;98898.94;1803751;79;25526;-59
2024/02/24 08:23:43;;;;;;;16.20;10.23;;;;;;;8.11;100.00;98904.46;1803772;79;25560;-57
2024/02/24 08:26:09;;;;;;;15.05;10.38;;;;;;;8.16;100.00;98929.08;1803785;79;28077;-58
2024/02/24 08:28:35;;;;;;;15.35;11.05;;;;;;;8.19;100.00;98914.96;1803676;79;25617;-56
2024/02/24 08:31:02;;;;;;;16.48;10.15;;;;;;;8.21;100.00;98912.73;1803775;79;25390;-57
2024/02/24 08:33:29;;;;;;;14.07;10.82;;;;;;;8.23;100.00;98911.27;1803757;79;25897;-57
2024/02/24 08:35:55;;;;;;;18.10;10.23;;;;;;;8.28;100.00;98918.95;1803804;79;25379;-58
2024/02/24 08:38:22;;;;;;;13.90;10.50;;;;;;;8.29;100.00;98919.97;1803756;79;27467;-58
2024/02/24 08:40:48;;;;;;;17.20;10.18;;;;;;;8.34;100.00;98937.83;1803680;79;25387;-58
2024/02/24 08:43:15;;;;;;;12.88;9.83;;;;;;;8.34;100.00;98954.80;1803714;79;25638;-59
2024/02/24 08:45:44;;;;;;;14.18;10.08;;;;;;;8.36;100.00;98932.36;1803717;79;25614;-58
2024/02/24 08:48:16;;;;;;;14.43;9.68;;;;;;;8.38;100.00;98930.69;1803909;79;25433;-58
2024/02/24 08:50:40;;;;;;;;;;;;;;;8.40;100.00;98933.84;1804625;79;28234;-58
2024/02/24 08:53:06;;;;;;;14.18;10.35;;;;;;;8.45;100.00;98939.06;1803652;79;25651;-57
2024/02/24 08:55:32;;;;;;;18.42;10.45;;;;;;;8.45;100.00;98936.37;1803751;79;25538;-58
2024/02/24 08:57:59;;;;;;;15.00;9.35;;;;;;;8.51;100.00;98949.89;1803717;79;25494;-58
2024/02/24 09:00:25;;;;;;;13.88;10.13;;;;;;;8.55;100.00;98941.94;1803787;79;25612;-58
2024/02/24 09:02:52;;;;;;;15.72;9.55;;;;;;;8.58;100.00;98950.69;1803762;79;27474;-58
2024/02/24 09:05:19;;;;;;;14.38;9.63;;;;;;;8.63;100.00;98968.58;1803653;79;25882;-59
2024/02/24 09:07:45;;;;;;;13.95;9.68;;;;;;;8.64;100.00;98964.78;1803829;79;25607;-56
2024/02/24 09:10:12;;;;;;;13.28;9.83;;;;;;;8.69;100.00;98966.72;1793959;79;25618;-59
2024/02/24 09:12:38;;;;;;;14.78;10.25;;;;;;;8.75;100.00;98975.38;1792241;80;25372;-59
2024/02/24 09:15:06;;;;;;;13.80;10.45;;;;;;;8.78;100.00;98982.82;1792194;80;27459;-59
2024/02/24 09:17:33;;;;;;;17.35;9.88;;;;;;;8.84;100.00;98981.52;1792117;80;25612;-59
2024/02/24 09:19:59;;;;;;;13.78;9.43;;;;;;;8.86;100.00;98988.72;1792241;80;25562;-55
2024/02/24 09:22:25;;;;;;;14.00;8.88;;;;;;;8.92;100.00;99004.13;1792113;80;25565;-58
2024/02/24 09:24:52;;;;;;;13.88;9.60;;;;;;;8.96;100.00;99001.02;1792219;80;25644;-58
2024/02/24 09:27:18;;;;;;;12.33;9.75;;;;;;;9.01;100.00;99020.23;1792275;80;27790;-60
2024/02/24 09:29:44;;;;;;;15.00;9.20;;;;;;;9.01;100.00;99010.27;1792155;80;25609;-58
2024/02/24 09:32:12;;;;;;;12.53;9.23;;;;;;;9.07;100.00;99022.41;1792261;80;25628;-58
2024/02/24 09:34:39;;;;;;;14.05;9.33;;;;;;;9.13;100.00;99032.47;1792185;80;25464;-59
2024/02/24 09:37:05;;;;;;;15.03;9.75;;;;;;;9.18;100.00;99048.45;1792230;80;25377;-59
2024/02/24 09:39:32;;;;;;;12.85;8.90;;;;;;;9.21;100.00;99038.89;1792258;80;27453;-59
2024/02/24 09:42:00;;;;;;;13.05;9.38;;;;;;;9.24;100.00;99044.98;1792152;80;25594;-57
2024/02/24 09:44:29;;;;;;;12.30;9.43;;;;;;;9.28;100.00;99049.40;1792386;80;25589;-59
2024/02/24 09:47:00;;;;;;;11.53;8.48;;;;;;;9.32;100.00;99053.58;1792316;80;25462;-58
2024/02/24 09:49:30;;;;;;;17.50;8.55;;;;;;;9.36;100.00;99058.52;1794083;80;25651;-59
2024/02/24 09:51:59;;;;;;;11.48;8.65;;;;;;;9.43;100.00;99062.05;1792217;80;27474;-58
2024/02/24 09:54:27;;;;;;;12.88;8.55;;;;;;;9.49;100.00;99066.13;1792117;80;25909;-58
2024/02/24 09:56:55;;;;;;;14.85;9.85;;;;;;;9.55;100.00;99085.03;1792264;80;25529;-59
2024/02/24 09:59:22;;;;;;;12.80;9.18;;;;;;;9.56;100.00;99074.47;1792155;80;25794;-59
2024/02/24 10:01:49;;;;;;;13.95;9.48;;;;;;;9.58;100.00;99076.84;1792211;80;25609;-56
2024/02/24 10:04:17;;;;;;;15.43;9.10;;;;;;;9.63;100.00;99086.09;1792214;80;27468;-61
2024/02/24 10:06:43;;;;;;;15.13;10.10;;;;;;;9.64;100.00;99084.98;1792062;80;25600;-59
2024/02/24 10:09:12;;;;;;;17.07;9.78;;;;;;;9.77;100.00;99087.14;1795153;79;25881;-60
2024/02/24 10:11:40;;;;;;;13.65;9.60;;;;;;;9.87;100.00;99090.78;1803841;79;25402;-59
2024/02/24 10:14:07;;;;;;;15.45;10.70;;;;;;;10.01;100.00;99076.97;1803870;79;25544;-59
2024/02/24 10:16:38;;;;;;;12.93;9.35;;;;;;;10.19;100.00;99077.58;1803715;79;27803;-60
2024/02/24 10:19:06;;;;;;;16.23;9.78;;;;;;;10.39;100.00;99081.34;1803735;79;25572;-59
2024/02/24 10:21:36;;;;;;;12.35;9.35;;;;;;;10.83;100.00;99072.10;1803658;79;25399;-60
2024/02/24 10:24:04;;;;;;;13.32;9.13;;;;;;;11.42;95.67;99082.11;1803773;79;25695;-53
2024/02/24 10:26:32;;;;;;;11.43;8.78;;;;;;;11.77;93.80;99083.66;1803539;79;25629;-52
2024/02/24 10:28:58;;;;;;;11.60;8.40;;;;;;;11.92;94.43;99075.38;1803633;79;27842;-52
2024/02/24 10:31:26;;;;;;;10.10;8.50;;;;;;;12.11;93.15;99076.83;1803660;79;25525;-56
2024/02/24 10:33:54;;;;;;;10.43;8.13;;;;;;;12.08;91.13;99088.94;1804011;79;25609;-55
2024/02/24 10:36:26;;;;;;;9.48;7.90;;;;;;;11.95;91.59;99093.08;1803868;79;26178;-56
2024/02/24 10:38:54;;;;;;;10.38;8.08;;;;;;;11.84;89.28;99074.94;1803729;79;25508;-57
2024/02/24 10:41:23;;;;;;;12.00;8.10;;;;;;;11.77;89.86;99088.50;1803703;79;27462;-54
2024/02/24 10:43:51;;;;;;;11.12;7.45;;;;;;;11.79;90.43;99113.89;1803606;79;25867;-56
2024/02/24 10:46:18;;;;;;;15.55;12.82;;;;;;;11.69;87.29;99111.10;1803810;79;25590;-54
2024/02/24 10:48:44;;;;;;;29.55;20.55;;;;;;;11.58;85.79;99129.00;1803647;79;26016;-53
2024/02/24 10:51:13;;;;;;;7.65;5.97;;;;;;;11.48;87.32;99125.42;1803739;79;25454;-59
2024/02/24 10:53:51;;;;;;;7.37;5.55;;;;;;;11.40;86.10;99117.06;1803672;79;27469;-58
2024/02/24 10:56:19;;;;;;;6.08;4.72;;;;;;;11.43;87.43;99130.50;1803602;79;25419;-63
2024/02/24 10:58:47;;;;;;;5.42;4.83;;;;;;;11.51;86.69;99125.52;1803658;79;25430;-62
2024/02/24 11:01:18;;;;;;;4.60;3.50;;;;;;;11.53;86.33;99130.02;1803633;79;26023;-60
2024/02/24 11:03:46;;;;;;;5.28;3.52;;;;;;;11.53;86.66;99144.91;1803793;79;25540;-61
2024/02/24 11:06:13;;;;;;;4.90;3.83;;;;;;;11.67;85.42;99168.91;1803692;79;27829;-60
2024/02/24 11:08:48;;;;;;;6.45;3.60;;;;;;;11.87;85.63;99151.47;1803577;79;25583;-57
2024/02/24 11:11:14;;;;;;;4.58;3.75;;;;;;;11.94;83.97;99154.39;1803204;79;25514;-59
2024/02/24 11:13:49;;;;;;;5.08;3.60;;;;;;;11.85;82.19;99155.87;1803707;79;25449;-56
2024/02/24 11:16:18;;;;;;;3.62;3.00;;;;;;;11.76;84.34;99149.25;1803685;79;25389;-59
2024/02/24 11:18:52;;;;;;;;;;;;;;;11.77;81.68;99146.74;1806289;79;28449;-60